createdAt,value
2023-04-09T00:00:16.758Z,76.39
2023-04-09T00:01:19.132Z,76.71
2023-04-09T00:02:21.482Z,76.68
2023-04-09T00:03:23.785Z,76.81
2023-04-09T00:04:26.094Z,76.52
2023-04-09T00:05:28.638Z,76.32
2023-04-09T00:06:31.363Z,76.23
2023-04-09T00:07:33.578Z,76.44
2023-04-09T00:08:35.956Z,76.50
2023-04-09T00:09:38.151Z,76.53
2023-04-09T00:10:40.446Z,76.51
2023-04-09T00:11:42.965Z,76.29
2023-04-09T00:12:46.773Z,76.25
2023-04-09T00:13:48.967Z,76.30
2023-04-09T00:14:51.762Z,76.54
2023-04-09T00:15:53.926Z,76.07
2023-04-09T00:16:56.318Z,75.95
2023-04-09T00:17:58.959Z,76.00
2023-04-09T00:19:01.196Z,75.81
2023-04-09T00:20:05.967Z,76.07
2023-04-09T00:21:08.708Z,76.01
2023-04-09T00:22:11.254Z,75.95
2023-04-09T00:23:14.487Z,76.53
2023-04-09T00:24:16.643Z,76.52
2023-04-09T00:25:19.931Z,76.36
2023-04-09T00:26:22.436Z,76.33
2023-04-09T00:27:24.819Z,76.27
2023-04-09T00:28:27.117Z,76.53
2023-04-09T00:29:29.299Z,76.45
2023-04-09T00:30:32.655Z,76.26
2023-04-09T00:31:35.005Z,76.33
2023-04-09T00:32:41.580Z,75.84
2023-04-09T00:33:44.094Z,75.96
2023-04-09T00:34:46.612Z,75.77
2023-04-09T00:35:48.843Z,75.84
2023-04-09T00:36:51.243Z,76.13
2023-04-09T00:37:53.589Z,76.19
2023-04-09T00:38:56.106Z,76.36
2023-04-09T00:39:58.500Z,76.77
2023-04-09T00:41:01.077Z,77.00
2023-04-09T00:42:03.618Z,77.18
2023-04-09T00:43:06.941Z,76.92
2023-04-09T00:44:09.144Z,77.77
2023-04-09T00:45:11.556Z,78.57
2023-04-09T00:46:14.375Z,79.05
2023-04-09T00:47:17.742Z,79.14
2023-04-09T00:48:20.860Z,78.90
2023-04-09T00:49:24.779Z,78.92
2023-04-09T00:50:27.177Z,79.09
2023-04-09T00:51:29.600Z,79.63
2023-04-09T00:52:33.325Z,79.64
2023-04-09T00:53:35.595Z,79.43
2023-04-09T00:54:37.879Z,79.08
2023-04-09T00:55:41.710Z,79.08
2023-04-09T00:56:44.137Z,78.74
2023-04-09T00:57:47.104Z,78.72
2023-04-09T00:58:49.906Z,78.80
2023-04-09T00:59:52.177Z,78.21
2023-04-09T01:00:55.509Z,77.74
2023-04-09T01:01:58.168Z,77.27
2023-04-09T01:03:01.068Z,77.29
2023-04-09T01:04:03.652Z,77.16
2023-04-09T01:05:06.514Z,77.23
2023-04-09T01:06:33.121Z,77.16
2023-04-09T01:07:51.376Z,77.26
2023-04-09T01:08:56.244Z,77.10
2023-04-09T01:10:53.801Z,77.16
2023-04-09T01:11:56.825Z,77.35
2023-04-09T01:12:59.373Z,77.46
2023-04-09T01:14:08.762Z,77.49
2023-04-09T01:15:18.361Z,77.39
2023-04-09T01:16:23.311Z,77.51
2023-04-09T01:17:46.795Z,76.99
2023-04-09T01:19:00.006Z,76.64
2023-04-09T01:20:07.488Z,76.35
2023-04-09T01:21:12.024Z,76.23
2023-04-09T01:22:40.438Z,76.29
2023-04-09T01:23:47.998Z,76.52
2023-04-09T01:25:45.478Z,76.45
2023-04-09T01:26:57.284Z,76.32
2023-04-09T01:28:21.058Z,76.47
2023-04-09T01:29:26.684Z,76.29
2023-04-09T01:30:29.960Z,76.15
2023-04-09T01:31:37.482Z,75.90
2023-04-09T01:32:41.593Z,76.10
2023-04-09T01:33:44.963Z,76.12
2023-04-09T01:34:48.659Z,76.29
2023-04-09T01:35:52.800Z,76.15
2023-04-09T01:36:59.480Z,76.08
2023-04-09T01:38:03.986Z,76.06
2023-04-09T01:39:06.820Z,76.22
2023-04-09T01:40:09.651Z,76.16
2023-04-09T01:41:18.144Z,76.30
2023-04-09T01:42:21.134Z,76.41
2023-04-09T01:43:24.564Z,76.61
2023-04-09T01:44:29.043Z,77.12
2023-04-09T01:45:31.238Z,77.14
2023-04-09T01:46:35.335Z,77.12
2023-04-09T01:47:38.721Z,77.07
2023-04-09T01:48:41.618Z,77.08
2023-04-09T01:49:44.828Z,77.30
2023-04-09T01:50:48.068Z,77.07
2023-04-09T01:51:50.885Z,77.21
2023-04-09T01:52:53.426Z,77.20
2023-04-09T01:53:56.206Z,77.34
2023-04-09T01:54:58.780Z,77.18
2023-04-09T01:56:01.637Z,77.12
2023-04-09T01:57:04.316Z,77.33
2023-04-09T01:58:06.740Z,77.04
2023-04-09T01:59:09.023Z,77.39
2023-04-09T02:00:12.306Z,77.59
2023-04-09T02:01:32.175Z,77.69
2023-04-09T02:02:41.770Z,77.52
2023-04-09T02:03:53.726Z,77.60
2023-04-09T02:04:58.867Z,77.82
2023-04-09T02:06:13.582Z,77.67
2023-04-09T02:07:26.364Z,77.88
2023-04-09T02:08:30.758Z,77.64
2023-04-09T02:09:37.103Z,77.57
2023-04-09T02:10:40.878Z,77.46
2023-04-09T02:11:43.795Z,77.52
2023-04-09T02:12:52.545Z,77.52
2023-04-09T02:13:56.662Z,77.63
2023-04-09T02:15:02.362Z,77.73
2023-04-09T02:16:06.051Z,78.06
2023-04-09T02:17:08.508Z,78.36
2023-04-09T02:18:28.537Z,78.70
2023-04-09T02:19:41.536Z,78.60
2023-04-09T02:20:43.887Z,78.61
2023-04-09T02:21:46.459Z,78.49
2023-04-09T02:22:49.059Z,78.20
2023-04-09T02:23:51.304Z,78.44
2023-04-09T02:24:54.024Z,78.34
2023-04-09T02:25:56.570Z,77.99
2023-04-09T02:26:58.762Z,77.75
2023-04-09T02:28:01.129Z,77.06
2023-04-09T02:29:03.564Z,76.43
2023-04-09T02:30:06.607Z,76.38
2023-04-09T02:31:09.099Z,76.53
2023-04-09T02:32:11.352Z,76.57
2023-04-09T02:33:13.829Z,76.80
2023-04-09T02:34:16.085Z,77.06
2023-04-09T02:35:18.509Z,77.15
2023-04-09T02:36:20.809Z,77.25
2023-04-09T02:37:23.235Z,77.31
2023-04-09T02:38:25.416Z,77.30
2023-04-09T02:39:27.824Z,77.56
2023-04-09T02:40:30.326Z,78.06
2023-04-09T02:41:32.578Z,78.02
2023-04-09T02:42:35.365Z,78.72
2023-04-09T02:43:37.688Z,78.67
2023-04-09T02:44:39.952Z,78.90
2023-04-09T02:45:42.592Z,79.33
2023-04-09T02:46:46.387Z,79.48
2023-04-09T02:47:49.141Z,79.68
2023-04-09T02:48:51.700Z,79.79
2023-04-09T02:49:54.328Z,79.89
2023-04-09T02:50:57.351Z,79.96
2023-04-09T02:51:59.589Z,80.13
2023-04-09T02:53:01.853Z,80.34
2023-04-09T02:54:04.658Z,80.32
2023-04-09T02:55:08.507Z,80.52
2023-04-09T02:56:10.785Z,80.72
2023-04-09T02:57:13.001Z,80.53
2023-04-09T02:58:15.706Z,80.43
2023-04-09T02:59:18.074Z,80.48
2023-04-09T03:00:20.882Z,80.76
2023-04-09T03:01:23.175Z,80.66
2023-04-09T03:02:25.553Z,80.64
2023-04-09T03:03:28.198Z,80.79
2023-04-09T03:04:30.617Z,81.12
2023-04-09T03:05:33.035Z,81.21
2023-04-09T03:06:40.824Z,81.57
2023-04-09T03:07:43.042Z,81.11
2023-04-09T03:08:45.622Z,81.51
2023-04-09T03:09:47.833Z,81.18
2023-04-09T03:10:50.414Z,80.88
2023-04-09T03:11:52.647Z,80.73
2023-04-09T03:12:55.282Z,80.52
2023-04-09T03:13:58.749Z,80.61
2023-04-09T03:15:01.005Z,80.63
2023-04-09T03:16:04.981Z,80.45
2023-04-09T03:17:07.239Z,80.66
2023-04-09T03:18:09.626Z,80.64
2023-04-09T03:19:11.761Z,80.71
2023-04-09T03:20:14.324Z,80.70
2023-04-09T03:21:16.622Z,80.41
2023-04-09T03:22:23.315Z,80.52
2023-04-09T03:23:28.125Z,80.69
2023-04-09T03:24:32.231Z,80.44
2023-04-09T03:25:39.194Z,80.69
2023-04-09T03:26:47.811Z,80.44
2023-04-09T03:27:51.094Z,80.37
2023-04-09T03:29:02.212Z,80.30
2023-04-09T03:30:04.866Z,80.45
2023-04-09T03:31:17.224Z,80.25
2023-04-09T03:32:20.773Z,80.31
2023-04-09T03:33:24.133Z,80.13
2023-04-09T03:34:29.799Z,79.89
2023-04-09T03:35:33.318Z,79.62
2023-04-09T03:36:36.289Z,79.46
2023-04-09T03:37:43.399Z,79.41
2023-04-09T03:38:51.863Z,79.50
2023-04-09T03:40:14.436Z,79.57
2023-04-09T03:41:17.065Z,79.65
2023-04-09T03:42:19.275Z,79.29
2023-04-09T03:43:24.073Z,79.27
2023-04-09T03:44:28.462Z,79.16
2023-04-09T03:45:38.813Z,78.92
2023-04-09T03:46:56.465Z,79.15
2023-04-09T03:47:59.807Z,78.95
2023-04-09T03:49:02.294Z,79.09
2023-04-09T03:50:12.845Z,78.69
2023-04-09T03:51:23.020Z,78.52
2023-04-09T03:52:31.120Z,78.25
2023-04-09T03:53:38.049Z,77.45
2023-04-09T03:54:43.512Z,77.35
2023-04-09T03:55:51.432Z,77.49
2023-04-09T03:56:59.346Z,77.58
2023-04-09T03:58:01.549Z,77.87
2023-04-09T03:59:07.250Z,78.09
2023-04-09T04:00:22.478Z,78.56
2023-04-09T04:01:48.480Z,78.28
2023-04-09T04:02:52.174Z,78.32
2023-04-09T04:04:11.960Z,78.61
2023-04-09T04:05:18.900Z,78.98
2023-04-09T04:06:24.504Z,79.21
2023-04-09T04:07:38.135Z,79.92
2023-04-09T04:08:47.770Z,80.17
2023-04-09T04:09:51.661Z,80.35
2023-04-09T04:10:54.909Z,80.49
2023-04-09T04:11:58.887Z,80.32
2023-04-09T04:13:15.661Z,80.43
2023-04-09T04:14:23.805Z,80.36
2023-04-09T04:15:32.665Z,80.53
2023-04-09T04:16:35.153Z,80.74
2023-04-09T04:17:39.502Z,80.51
2023-04-09T04:18:53.171Z,80.39
2023-04-09T04:19:56.293Z,80.49
2023-04-09T04:20:59.433Z,80.45
2023-04-09T04:23:08.236Z,80.36
2023-04-09T04:24:14.362Z,80.27
2023-04-09T04:25:17.280Z,80.26
2023-04-09T04:26:20.850Z,80.05
2023-04-09T04:27:23.465Z,79.92
2023-04-09T04:28:26.317Z,79.75
2023-04-09T04:29:28.552Z,79.37
2023-04-09T04:30:34.115Z,78.86
2023-04-09T04:31:40.562Z,78.73
2023-04-09T04:32:43.064Z,78.13
2023-04-09T04:33:47.148Z,77.80
2023-04-09T04:34:50.813Z,77.73
2023-04-09T04:36:10.367Z,77.88
2023-04-09T04:37:17.265Z,78.29
2023-04-09T04:38:19.719Z,78.33
2023-04-09T04:39:21.925Z,78.17
2023-04-09T04:40:35.255Z,78.06
2023-04-09T04:41:37.832Z,78.12
2023-04-09T04:42:50.202Z,78.69
2023-04-09T04:43:52.485Z,78.96
2023-04-09T04:44:57.982Z,79.50
2023-04-09T04:46:13.040Z,79.86
2023-04-09T04:47:15.663Z,80.27
2023-04-09T04:48:17.921Z,80.41
2023-04-09T04:49:20.333Z,80.64
2023-04-09T04:50:23.539Z,80.84
2023-04-09T04:51:36.341Z,80.84
2023-04-09T04:52:44.298Z,81.13
2023-04-09T04:53:46.913Z,80.75
2023-04-09T04:54:50.365Z,80.78
2023-04-09T04:55:57.084Z,80.64
2023-04-09T04:57:02.057Z,80.86
2023-04-09T04:58:11.359Z,80.65
2023-04-09T04:59:19.867Z,80.77
2023-04-09T05:00:32.637Z,80.79
2023-04-09T05:01:37.971Z,80.59
2023-04-09T05:02:44.668Z,80.69
2023-04-09T05:03:59.411Z,80.90
2023-04-09T05:05:08.179Z,80.89
2023-04-09T05:06:15.938Z,80.74
2023-04-09T05:07:20.766Z,80.28
2023-04-09T05:08:27.167Z,80.34
2023-04-09T05:09:31.399Z,80.31
2023-04-09T05:10:43.100Z,80.19
2023-04-09T05:11:46.317Z,79.88
2023-04-09T05:12:54.276Z,79.79
2023-04-09T05:14:04.806Z,79.96
2023-04-09T05:15:08.077Z,79.84
2023-04-09T05:16:19.158Z,80.16
2023-04-09T05:17:27.047Z,80.43
2023-04-09T05:18:29.633Z,80.28
2023-04-09T05:19:31.905Z,80.68
2023-04-09T05:20:37.727Z,80.50
2023-04-09T05:21:44.118Z,80.59
2023-04-09T05:22:47.747Z,80.80
2023-04-09T05:23:50.766Z,80.92
2023-04-09T05:24:53.815Z,81.21
2023-04-09T05:25:56.465Z,81.49
2023-04-09T05:27:12.454Z,81.75
2023-04-09T05:28:19.464Z,81.94
2023-04-09T05:29:25.349Z,81.53
2023-04-09T05:30:27.700Z,81.39
2023-04-09T05:31:32.944Z,81.16
2023-04-09T05:32:40.413Z,81.10
2023-04-09T05:33:43.324Z,80.74
2023-04-09T05:34:52.635Z,80.64
2023-04-09T05:35:55.180Z,80.58
2023-04-09T05:36:57.452Z,80.82
2023-04-09T05:38:01.172Z,80.92
2023-04-09T05:39:03.519Z,80.76
2023-04-09T05:40:06.918Z,80.72
2023-04-09T05:41:09.211Z,80.24
2023-04-09T05:42:18.582Z,79.81
2023-04-09T05:43:47.260Z,79.96
2023-04-09T05:44:50.479Z,79.71
2023-04-09T05:45:55.967Z,79.40
2023-04-09T05:46:58.322Z,79.28
2023-04-09T05:48:06.985Z,78.76
2023-04-09T05:49:09.199Z,78.58
2023-04-09T05:50:12.819Z,78.20
2023-04-09T05:51:16.534Z,78.09
2023-04-09T05:52:19.794Z,78.16
2023-04-09T05:53:22.659Z,77.92
2023-04-09T05:54:26.049Z,77.96
2023-04-09T05:55:28.309Z,77.84
2023-04-09T05:56:34.934Z,77.55
2023-04-09T05:57:37.138Z,77.26
2023-04-09T05:58:40.173Z,77.41
2023-04-09T05:59:42.431Z,77.13
2023-04-09T06:00:44.916Z,77.37
2023-04-09T06:01:47.301Z,77.15
2023-04-09T06:02:50.037Z,76.61
2023-04-09T06:03:56.141Z,76.44
2023-04-09T06:05:00.247Z,76.17
2023-04-09T06:06:02.625Z,76.25
2023-04-09T06:07:04.822Z,76.21
2023-04-09T06:08:07.398Z,76.05
2023-04-09T06:09:09.806Z,76.11
2023-04-09T06:10:16.892Z,76.03
2023-04-09T06:11:19.534Z,75.57
2023-04-09T06:12:22.024Z,76.05
2023-04-09T06:13:24.642Z,75.93
2023-04-09T06:14:27.044Z,75.86
2023-04-09T06:15:29.281Z,75.98
2023-04-09T06:16:33.509Z,75.83
2023-04-09T06:17:35.868Z,75.77
2023-04-09T06:18:38.411Z,75.92
2023-04-09T06:19:40.634Z,75.62
2023-04-09T06:20:43.031Z,75.21
2023-04-09T06:21:45.325Z,75.09
2023-04-09T06:22:48.092Z,75.32
2023-04-09T06:23:50.795Z,75.24
2023-04-09T06:24:53.253Z,75.22
2023-04-09T06:25:55.873Z,75.07
2023-04-09T06:26:58.075Z,75.00
2023-04-09T06:28:00.291Z,74.90
2023-04-09T06:29:03.540Z,74.82
2023-04-09T06:30:06.478Z,74.93
2023-04-09T06:31:09.025Z,74.58
2023-04-09T06:32:11.441Z,74.38
2023-04-09T06:33:13.701Z,74.34
2023-04-09T06:34:16.177Z,74.04
2023-04-09T06:35:18.407Z,73.78
2023-04-09T06:36:21.306Z,73.53
2023-04-09T06:37:23.653Z,73.47
2023-04-09T06:38:25.950Z,73.45
2023-04-09T06:39:28.365Z,73.24
2023-04-09T06:40:30.822Z,73.29
2023-04-09T06:41:33.684Z,73.44
2023-04-09T06:42:39.976Z,72.67
2023-04-09T06:43:52.473Z,72.41
2023-04-09T06:44:54.933Z,71.60
2023-04-09T06:45:57.283Z,71.36
2023-04-09T06:46:59.522Z,71.34
2023-04-09T06:48:01.916Z,71.33
2023-04-09T06:49:04.485Z,70.75
2023-04-09T06:50:07.311Z,69.92
2023-04-09T06:51:09.669Z,68.99
2023-04-09T06:52:12.103Z,67.96
2023-04-09T06:53:15.473Z,66.52
2023-04-09T06:54:17.839Z,64.82
2023-04-09T06:55:20.340Z,64.21
2023-04-09T06:56:22.507Z,63.38
2023-04-09T06:57:24.699Z,62.43
2023-04-09T06:58:26.883Z,62.10
2023-04-09T06:59:29.252Z,61.76
2023-04-09T07:00:31.471Z,61.30
2023-04-09T07:01:35.583Z,60.97
2023-04-09T07:02:38.612Z,61.06
2023-04-09T07:03:41.233Z,60.25
2023-04-09T07:04:43.968Z,59.91
2023-04-09T07:05:46.413Z,59.50
2023-04-09T07:06:48.624Z,58.83
2023-04-09T07:07:51.191Z,58.36
2023-04-09T07:08:53.677Z,58.13
2023-04-09T07:09:56.370Z,56.84
2023-04-09T07:10:58.645Z,56.83
2023-04-09T07:12:01.088Z,57.50
2023-04-09T07:13:03.427Z,57.46
2023-04-09T07:14:05.951Z,57.37
2023-04-09T07:15:08.534Z,56.87
2023-04-09T07:16:11.085Z,56.49
2023-04-09T07:17:13.306Z,56.29
2023-04-09T07:18:15.780Z,55.91
2023-04-09T07:19:18.355Z,55.46
2023-04-09T07:20:20.778Z,55.19
2023-04-09T07:21:22.930Z,55.27
2023-04-09T07:22:27.259Z,55.91
2023-04-09T07:23:29.421Z,56.30
2023-04-09T07:24:32.583Z,56.72
2023-04-09T07:25:34.783Z,57.68
2023-04-09T07:26:37.296Z,58.16
2023-04-09T07:27:39.543Z,58.48
2023-04-09T07:28:42.276Z,58.60
2023-04-09T07:29:45.150Z,58.83
2023-04-09T07:30:47.376Z,59.11
2023-04-09T07:31:49.799Z,59.08
2023-04-09T07:32:52.207Z,58.79
2023-04-09T07:33:54.791Z,58.22
2023-04-09T07:34:57.718Z,58.53
2023-04-09T07:35:59.900Z,59.08
2023-04-09T07:37:02.165Z,59.16
2023-04-09T07:38:04.469Z,59.32
2023-04-09T07:39:06.882Z,59.00
2023-04-09T07:40:09.477Z,59.14
2023-04-09T07:41:11.850Z,59.26
2023-04-09T07:42:14.514Z,59.16
2023-04-09T07:43:16.885Z,59.20
2023-04-09T07:44:19.357Z,58.95
2023-04-09T07:45:21.699Z,59.12
2023-04-09T07:46:23.924Z,58.89
2023-04-09T07:47:26.982Z,58.71
2023-04-09T07:48:29.474Z,59.40
2023-04-09T07:49:31.852Z,59.46
2023-04-09T07:50:34.087Z,59.47
2023-04-09T07:51:36.411Z,59.29
2023-04-09T07:52:38.858Z,59.47
2023-04-09T07:53:41.377Z,59.96
2023-04-09T07:54:43.787Z,60.52
2023-04-09T07:55:46.621Z,60.17
2023-04-09T07:56:49.140Z,60.57
2023-04-09T07:57:51.724Z,60.94
2023-04-09T07:58:54.346Z,61.06
2023-04-09T07:59:56.862Z,61.19
2023-04-09T08:00:59.050Z,61.14
2023-04-09T08:02:01.541Z,61.02
2023-04-09T08:03:04.237Z,60.81
2023-04-09T08:04:06.987Z,60.74
2023-04-09T08:05:09.943Z,60.54
2023-04-09T08:06:12.158Z,61.12
2023-04-09T08:07:14.515Z,61.10
2023-04-09T08:08:16.755Z,60.62
2023-04-09T08:09:20.768Z,60.51
2023-04-09T08:10:23.388Z,60.69
2023-04-09T08:11:26.085Z,60.50
2023-04-09T08:12:28.569Z,60.44
2023-04-09T08:13:30.766Z,59.89
2023-04-09T08:14:33.219Z,59.71
2023-04-09T08:15:35.403Z,59.56
2023-04-09T08:16:37.766Z,59.22
2023-04-09T08:17:40.486Z,59.49
2023-04-09T08:18:42.707Z,59.26
2023-04-09T08:19:45.106Z,59.07
2023-04-09T08:20:47.354Z,58.96
2023-04-09T08:21:49.664Z,58.57
2023-04-09T08:22:52.107Z,58.27
2023-04-09T08:23:56.140Z,58.36
2023-04-09T08:25:01.486Z,58.14
2023-04-09T08:26:04.866Z,57.91
2023-04-09T08:27:07.315Z,57.24
2023-04-09T08:28:09.797Z,57.82
2023-04-09T08:29:13.543Z,58.19
2023-04-09T08:30:18.258Z,58.58
2023-04-09T08:31:21.038Z,58.66
2023-04-09T08:32:23.252Z,58.71
2023-04-09T08:33:26.464Z,58.33
2023-04-09T08:34:28.903Z,58.29
2023-04-09T08:35:31.711Z,58.11
2023-04-09T08:36:35.448Z,58.12
2023-04-09T08:37:37.717Z,57.95
2023-04-09T08:38:40.642Z,57.58
2023-04-09T08:39:43.080Z,57.15
2023-04-09T08:40:45.456Z,56.99
2023-04-09T08:41:48.351Z,56.89
2023-04-09T08:42:59.293Z,56.93
2023-04-09T08:44:02.098Z,57.32
2023-04-09T08:45:05.635Z,57.67
2023-04-09T08:46:10.664Z,57.36
2023-04-09T08:47:13.499Z,57.35
2023-04-09T08:48:17.065Z,57.58
2023-04-09T08:49:19.510Z,57.93
2023-04-09T08:50:22.431Z,58.20
2023-04-09T08:51:24.986Z,58.22
2023-04-09T08:52:32.962Z,58.37
2023-04-09T08:53:36.757Z,58.43
2023-04-09T08:54:39.028Z,58.21
2023-04-09T08:55:45.538Z,57.85
2023-04-09T08:56:47.986Z,57.31
2023-04-09T08:57:50.241Z,56.89
2023-04-09T08:58:53.395Z,56.73
2023-04-09T08:59:56.169Z,56.29
2023-04-09T09:00:58.493Z,56.76
2023-04-09T09:02:08.066Z,56.57
2023-04-09T09:03:13.235Z,56.27
2023-04-09T09:04:15.546Z,56.08
2023-04-09T09:05:35.259Z,56.30
2023-04-09T09:06:39.717Z,56.75
2023-04-09T09:07:54.664Z,56.58
2023-04-09T09:09:09.990Z,57.05
2023-04-09T09:10:12.404Z,57.17
2023-04-09T09:11:27.056Z,57.36
2023-04-09T09:12:35.559Z,57.68
2023-04-09T09:13:37.777Z,57.38
2023-04-09T09:14:40.195Z,57.13
2023-04-09T09:15:42.699Z,56.56
2023-04-09T09:17:04.190Z,55.66
2023-04-09T09:18:07.214Z,56.08
2023-04-09T09:19:27.791Z,56.05
2023-04-09T09:20:30.250Z,55.45
2023-04-09T09:21:33.364Z,54.96
2023-04-09T09:22:55.205Z,54.57
2023-04-09T09:23:58.242Z,54.30
2023-04-09T09:25:01.027Z,54.05
2023-04-09T09:26:13.704Z,54.15
2023-04-09T09:27:43.142Z,54.55
2023-04-09T09:28:47.035Z,54.31
2023-04-09T09:29:49.231Z,54.26
2023-04-09T09:30:51.858Z,54.46
2023-04-09T09:31:56.267Z,54.45
2023-04-09T09:33:10.141Z,54.03
2023-04-09T09:34:12.349Z,53.92
2023-04-09T09:35:14.597Z,53.74
2023-04-09T09:36:33.924Z,52.79
2023-04-09T09:37:36.097Z,52.15
2023-04-09T09:38:57.890Z,52.07
2023-04-09T09:40:01.017Z,52.48
2023-04-09T09:41:18.279Z,51.85
2023-04-09T09:42:20.760Z,51.99
2023-04-09T09:43:23.108Z,52.28
2023-04-09T09:44:33.300Z,52.73
2023-04-09T09:45:36.892Z,52.71
2023-04-09T09:46:42.584Z,52.67
2023-04-09T09:47:45.813Z,52.03
2023-04-09T09:48:49.713Z,51.59
2023-04-09T09:49:52.320Z,51.54
2023-04-09T09:50:54.983Z,51.59
2023-04-09T09:51:59.972Z,51.37
2023-04-09T09:53:05.396Z,51.58
2023-04-09T09:54:12.890Z,51.58
2023-04-09T09:55:17.972Z,51.12
2023-04-09T09:56:24.792Z,51.14
2023-04-09T09:57:30.549Z,51.65
2023-04-09T09:58:38.865Z,52.11
2023-04-09T09:59:47.670Z,52.17
2023-04-09T10:00:51.736Z,52.27
2023-04-09T10:02:01.504Z,52.45
2023-04-09T10:03:16.104Z,52.06
2023-04-09T10:04:20.097Z,51.73
2023-04-09T10:05:26.790Z,51.77
2023-04-09T10:06:31.082Z,51.72
2023-04-09T10:07:33.811Z,51.48
2023-04-09T10:08:38.437Z,51.24
2023-04-09T10:09:51.525Z,51.28
2023-04-09T10:10:53.998Z,51.09
2023-04-09T10:11:59.295Z,51.01
2023-04-09T10:13:01.878Z,50.92
2023-04-09T10:14:07.577Z,50.32
2023-04-09T10:15:10.282Z,50.56
2023-04-09T10:16:13.259Z,51.07
2023-04-09T10:17:16.198Z,51.33
2023-04-09T10:18:18.687Z,51.00
2023-04-09T10:19:22.223Z,50.54
2023-04-09T10:20:32.539Z,50.63
2023-04-09T10:22:08.622Z,50.63
2023-04-09T10:23:19.488Z,50.10
2023-04-09T10:24:21.920Z,50.01
2023-04-09T10:25:24.018Z,49.99
2023-04-09T10:26:31.054Z,50.23
2023-04-09T10:27:33.235Z,50.30
2023-04-09T10:28:37.523Z,50.72
2023-04-09T10:29:45.391Z,50.56
2023-04-09T10:30:48.107Z,50.50
2023-04-09T10:32:07.118Z,51.10
2023-04-09T10:33:26.512Z,51.01
2023-04-09T10:34:29.453Z,50.40
2023-04-09T10:35:31.633Z,50.04
2023-04-09T10:36:34.024Z,49.67
2023-04-09T10:37:36.495Z,49.35
2023-04-09T10:38:45.166Z,49.00
2023-04-09T10:39:48.854Z,48.11
2023-04-09T10:40:51.438Z,48.23
2023-04-09T10:41:55.138Z,48.17
2023-04-09T10:42:59.430Z,47.97
2023-04-09T10:44:06.676Z,48.20
2023-04-09T10:45:14.699Z,48.72
2023-04-09T10:46:26.888Z,49.00
2023-04-09T10:47:34.662Z,48.58
2023-04-09T10:48:36.929Z,48.28
2023-04-09T10:49:40.709Z,48.31
2023-04-09T10:50:44.709Z,48.37
2023-04-09T10:52:07.996Z,48.53
2023-04-09T10:53:25.792Z,48.31
2023-04-09T10:54:36.138Z,48.77
2023-04-09T10:55:41.892Z,48.87
2023-04-09T10:57:17.952Z,49.21
2023-04-09T10:58:20.564Z,49.07
2023-04-09T10:59:23.000Z,48.74
2023-04-09T11:00:25.461Z,48.75
2023-04-09T11:01:28.460Z,48.16
2023-04-09T11:02:39.827Z,47.77
2023-04-09T11:03:46.738Z,48.04
2023-04-09T11:05:07.361Z,47.66
2023-04-09T11:06:10.875Z,47.13
2023-04-09T11:07:17.751Z,47.30
2023-04-09T11:08:21.986Z,46.84
2023-04-09T11:09:24.199Z,46.64
2023-04-09T11:10:26.811Z,46.75
2023-04-09T11:11:29.515Z,47.17
2023-04-09T11:12:31.685Z,47.46
2023-04-09T11:13:34.497Z,47.61
2023-04-09T11:14:36.930Z,48.32
2023-04-09T11:15:39.485Z,48.35
2023-04-09T11:16:41.737Z,49.16
2023-04-09T11:17:44.811Z,49.04
2023-04-09T11:18:47.074Z,49.30
2023-04-09T11:19:50.031Z,49.03
2023-04-09T11:20:59.466Z,48.59
2023-04-09T11:22:06.534Z,48.39
2023-04-09T11:23:10.398Z,48.55
2023-04-09T11:24:13.017Z,48.26
2023-04-09T11:25:34.973Z,48.04
2023-04-09T11:26:37.660Z,48.10
2023-04-09T11:27:46.790Z,48.13
2023-04-09T11:28:49.202Z,48.29
2023-04-09T11:29:55.963Z,48.89
2023-04-09T11:30:58.222Z,48.98
2023-04-09T11:32:00.816Z,48.94
2023-04-09T11:33:03.227Z,49.83
2023-04-09T11:34:05.573Z,49.51
2023-04-09T11:35:15.629Z,49.75
2023-04-09T11:36:17.883Z,49.97
2023-04-09T11:37:20.536Z,49.69
2023-04-09T11:38:23.360Z,49.37
2023-04-09T11:39:26.363Z,49.27
2023-04-09T11:40:29.270Z,49.70
2023-04-09T11:41:36.194Z,50.10
2023-04-09T11:42:38.362Z,50.69
2023-04-09T11:43:40.683Z,50.44
2023-04-09T11:44:45.369Z,49.42
2023-04-09T11:45:48.565Z,49.60
2023-04-09T11:46:52.317Z,49.57
2023-04-09T11:47:55.436Z,49.91
2023-04-09T11:48:57.954Z,50.13
2023-04-09T11:50:00.200Z,50.32
2023-04-09T11:51:03.930Z,50.27
2023-04-09T11:52:06.517Z,50.10
2023-04-09T11:53:22.172Z,49.83
2023-04-09T11:54:24.362Z,49.90
2023-04-09T11:55:28.068Z,49.37
2023-04-09T11:56:31.253Z,49.09
2023-04-09T11:57:39.583Z,48.35
2023-04-09T11:58:46.996Z,47.90
2023-04-09T11:59:49.368Z,47.59
2023-04-09T12:01:00.569Z,47.65
2023-04-09T12:02:07.075Z,47.37
2023-04-09T12:03:10.884Z,47.42
2023-04-09T12:04:21.456Z,47.55
2023-04-09T12:05:26.285Z,47.77
2023-04-09T12:06:28.600Z,48.00
2023-04-09T12:07:34.386Z,47.78
2023-04-09T12:08:37.561Z,48.30
2023-04-09T12:09:49.201Z,49.00
2023-04-09T12:10:54.672Z,49.99
2023-04-09T12:11:59.403Z,49.85
2023-04-09T12:13:04.313Z,49.55
2023-04-09T12:14:06.641Z,49.56
2023-04-09T12:15:23.752Z,49.26
2023-04-09T12:16:26.014Z,49.43
2023-04-09T12:17:28.580Z,49.54
2023-04-09T12:18:31.196Z,49.57
2023-04-09T12:19:36.574Z,49.00
2023-04-09T12:20:41.418Z,48.49
2023-04-09T12:21:52.025Z,49.40
2023-04-09T12:22:54.649Z,49.22
2023-04-09T12:23:56.740Z,48.73
2023-04-09T12:24:58.903Z,48.95
2023-04-09T12:26:01.337Z,49.27
2023-04-09T12:27:03.575Z,49.09
2023-04-09T12:28:07.513Z,49.11
2023-04-09T12:29:09.682Z,48.25
2023-04-09T12:30:11.879Z,48.59
2023-04-09T12:31:14.257Z,48.12
2023-04-09T12:32:16.460Z,47.86
2023-04-09T12:33:19.219Z,47.67
2023-04-09T12:34:21.412Z,48.19
2023-04-09T12:35:23.992Z,48.37
2023-04-09T12:36:26.520Z,47.80
2023-04-09T12:37:28.911Z,47.55
2023-04-09T12:38:31.173Z,47.55
2023-04-09T12:39:34.405Z,48.24
2023-04-09T12:40:37.090Z,47.92
2023-04-09T12:41:39.336Z,47.96
2023-04-09T12:42:42.762Z,48.11
2023-04-09T12:43:44.938Z,47.86
2023-04-09T12:44:47.308Z,47.50
2023-04-09T12:45:49.808Z,47.57
2023-04-09T12:46:52.065Z,47.58
2023-04-09T12:47:54.596Z,47.64
2023-04-09T12:48:56.822Z,47.99
2023-04-09T12:49:59.146Z,48.04
2023-04-09T12:51:02.031Z,47.65
2023-04-09T12:52:04.431Z,47.78
2023-04-09T12:53:06.984Z,47.58
2023-04-09T12:54:09.256Z,47.12
2023-04-09T12:55:12.676Z,46.94
2023-04-09T12:56:15.104Z,46.70
2023-04-09T12:57:17.667Z,46.98
2023-04-09T12:58:20.097Z,46.83
2023-04-09T12:59:22.289Z,46.35
2023-04-09T13:00:24.733Z,45.84
2023-04-09T13:01:27.393Z,45.39
2023-04-09T13:02:30.444Z,45.73
2023-04-09T13:03:34.527Z,45.93
2023-04-09T13:04:37.209Z,45.88
2023-04-09T13:05:39.699Z,45.84
2023-04-09T13:06:42.174Z,45.14
2023-04-09T13:07:44.474Z,45.13
2023-04-09T13:08:46.901Z,44.87
2023-04-09T13:09:52.610Z,44.91
2023-04-09T13:10:54.875Z,44.38
2023-04-09T13:11:57.297Z,43.89
2023-04-09T13:12:59.895Z,43.39
2023-04-09T13:14:02.118Z,43.11
2023-04-09T13:15:04.738Z,43.46
2023-04-09T13:16:07.533Z,43.23
2023-04-09T13:17:09.995Z,43.11
2023-04-09T13:18:15.099Z,42.97
2023-04-09T13:19:17.308Z,43.59
2023-04-09T13:20:19.775Z,43.93
2023-04-09T13:21:22.178Z,43.72
2023-04-09T13:22:24.503Z,43.70
2023-04-09T13:23:26.897Z,43.81
2023-04-09T13:24:29.320Z,43.36
2023-04-09T13:25:31.614Z,43.42
2023-04-09T13:26:34.179Z,43.41
2023-04-09T13:27:36.386Z,43.50
2023-04-09T13:28:38.593Z,44.16
2023-04-09T13:29:41.187Z,44.25
2023-04-09T13:30:43.431Z,43.56
2023-04-09T13:31:45.853Z,43.70
2023-04-09T13:32:48.134Z,43.44
2023-04-09T13:33:50.378Z,43.25
2023-04-09T13:34:54.619Z,43.85
2023-04-09T13:35:57.602Z,44.75
2023-04-09T13:36:59.887Z,45.24
2023-04-09T13:38:02.173Z,44.58
2023-04-09T13:39:04.588Z,44.39
2023-04-09T13:40:09.222Z,44.66
2023-04-09T13:41:11.629Z,44.70
2023-04-09T13:42:14.522Z,44.63
2023-04-09T13:43:17.073Z,44.64
2023-04-09T13:44:19.518Z,44.66
2023-04-09T13:45:23.900Z,44.51
2023-04-09T13:46:26.332Z,44.67
2023-04-09T13:47:28.604Z,44.49
2023-04-09T13:48:30.936Z,44.36
2023-04-09T13:49:33.308Z,44.66
2023-04-09T13:50:35.874Z,44.50
2023-04-09T13:51:38.226Z,44.47
2023-04-09T13:52:40.538Z,44.40
2023-04-09T13:53:43.333Z,44.46
2023-04-09T13:54:46.264Z,44.34
2023-04-09T13:55:48.919Z,44.25